createdAt,value
2023-02-04T00:00:27.720Z,932.15
2023-02-04T00:01:27.649Z,932.61
2023-02-04T00:02:27.667Z,932.46
2023-02-04T00:03:27.625Z,932.87
2023-02-04T00:04:27.640Z,933.38
2023-02-04T00:05:27.665Z,933.44
2023-02-04T00:06:27.648Z,933.46
2023-02-04T00:07:27.634Z,934.28
2023-02-04T00:08:27.585Z,934.66
2023-02-04T00:09:27.557Z,935.13
2023-02-04T00:10:27.578Z,935.83
2023-02-04T00:11:27.545Z,935.92
2023-02-04T00:12:27.529Z,936.18
2023-02-04T00:13:27.553Z,936.80
2023-02-04T00:14:29.353Z,937.04
2023-02-04T00:15:27.490Z,937.33
2023-02-04T00:16:27.694Z,937.35
2023-02-04T00:17:27.462Z,937.22
2023-02-04T00:18:27.460Z,937.50
2023-02-04T00:19:27.449Z,937.80
2023-02-04T00:20:27.456Z,937.71
2023-02-04T00:21:27.444Z,938.54
2023-02-04T00:22:27.420Z,939.26
2023-02-04T00:23:27.422Z,938.87
2023-02-04T00:24:27.423Z,940.11
2023-02-04T00:25:27.382Z,940.14
2023-02-04T00:26:27.396Z,939.87
2023-02-04T00:27:27.376Z,940.06
2023-02-04T00:28:27.361Z,940.14
2023-02-04T00:29:27.341Z,940.25
2023-02-04T00:30:27.329Z,940.91
2023-02-04T00:31:27.477Z,940.62
2023-02-04T00:32:27.369Z,940.06
2023-02-04T00:33:27.305Z,940.46
2023-02-04T00:34:27.281Z,940.87
2023-02-04T00:35:27.272Z,940.84
2023-02-04T00:36:27.277Z,941.41
2023-02-04T00:37:27.247Z,941.61
2023-02-04T00:38:27.256Z,942.30
2023-02-04T00:39:27.224Z,943.06
2023-02-04T00:40:27.227Z,943.94
2023-02-04T00:41:27.230Z,943.59
2023-02-04T00:42:27.195Z,943.90
2023-02-04T00:43:27.198Z,943.75
2023-02-04T00:44:27.164Z,943.95
2023-02-04T00:45:27.200Z,944.50
2023-02-04T00:46:27.165Z,943.91
2023-02-04T00:47:27.142Z,943.47
2023-02-04T00:48:27.134Z,943.53
2023-02-04T00:49:27.121Z,943.06
2023-02-04T00:50:27.106Z,943.18
2023-02-04T00:51:27.088Z,943.52
2023-02-04T00:52:27.090Z,944.15
2023-02-04T00:53:27.089Z,944.46
2023-02-04T00:54:27.080Z,944.62
2023-02-04T00:55:27.050Z,945.28
2023-02-04T00:56:27.048Z,945.31
2023-02-04T00:57:27.019Z,945.16
2023-02-04T00:58:27.027Z,945.15
2023-02-04T00:59:26.997Z,945.02
2023-02-04T01:00:26.985Z,945.57
2023-02-04T01:01:26.975Z,945.19
2023-02-04T01:02:26.984Z,945.40
2023-02-04T01:03:26.971Z,945.47
2023-02-04T01:04:26.970Z,945.85
2023-02-04T01:05:26.948Z,946.66
2023-02-04T01:06:26.931Z,946.46
2023-02-04T01:07:26.952Z,946.60
2023-02-04T01:08:26.919Z,946.71
2023-02-04T01:09:26.894Z,947.54
2023-02-04T01:10:26.911Z,946.78
2023-02-04T01:11:26.875Z,947.55
2023-02-04T01:12:26.865Z,948.05
2023-02-04T01:13:26.851Z,947.90
2023-02-04T01:14:26.849Z,947.57
2023-02-04T01:15:26.832Z,947.23
2023-02-04T01:16:26.855Z,947.78
2023-02-04T01:17:26.843Z,947.49
2023-02-04T01:18:26.811Z,948.18
2023-02-04T01:19:26.796Z,949.12
2023-02-04T01:20:26.779Z,948.92
2023-02-04T01:21:26.757Z,948.04
2023-02-04T01:22:26.754Z,947.94
2023-02-04T01:23:26.748Z,948.07
2023-02-04T01:24:26.739Z,948.48
2023-02-04T01:25:26.709Z,949.14
2023-02-04T01:26:26.707Z,949.78
2023-02-04T01:27:26.697Z,949.97
2023-02-04T01:28:26.689Z,950.00
2023-02-04T01:29:26.666Z,950.07
2023-02-04T01:30:26.656Z,950.02
2023-02-04T01:31:26.697Z,949.50
2023-02-04T01:32:26.669Z,949.97
2023-02-04T01:33:26.628Z,950.18
2023-02-04T01:34:26.648Z,950.69
2023-02-04T01:35:26.612Z,949.66
2023-02-04T01:36:26.601Z,950.38
2023-02-04T01:37:26.613Z,950.99
2023-02-04T01:38:26.586Z,951.41
2023-02-04T01:39:26.569Z,951.84
2023-02-04T01:40:26.558Z,952.14
2023-02-04T01:41:26.536Z,952.60
2023-02-04T01:42:26.553Z,952.55
2023-02-04T01:43:26.519Z,951.73
2023-02-04T01:44:26.497Z,951.64
2023-02-04T01:45:26.534Z,952.11
2023-02-04T01:46:26.497Z,952.74
2023-02-04T01:47:26.485Z,952.08
2023-02-04T01:48:26.458Z,952.05
2023-02-04T01:49:26.449Z,952.00
2023-02-04T01:50:26.436Z,951.97
2023-02-04T01:51:26.422Z,952.20
2023-02-04T01:52:26.436Z,952.84
2023-02-04T01:53:26.402Z,952.86
2023-02-04T01:54:26.402Z,953.37
2023-02-04T01:55:26.372Z,953.67
2023-02-04T01:56:26.368Z,953.72
2023-02-04T01:57:26.369Z,953.76
2023-02-04T01:58:26.345Z,954.35
2023-02-04T01:59:26.328Z,954.63
2023-02-04T02:00:26.344Z,954.55
2023-02-04T02:01:26.365Z,954.82
2023-02-04T02:02:26.323Z,954.93
2023-02-04T02:03:26.314Z,954.44
2023-02-04T02:04:26.268Z,954.11
2023-02-04T02:05:26.270Z,954.60
2023-02-04T02:06:26.249Z,954.78
2023-02-04T02:07:26.248Z,955.21
2023-02-04T02:08:26.249Z,956.00
2023-02-04T02:09:26.221Z,957.02
2023-02-04T02:10:26.209Z,957.05
2023-02-04T02:11:26.203Z,957.25
2023-02-04T02:12:26.179Z,956.79
2023-02-04T02:13:26.197Z,956.94
2023-02-04T02:14:26.159Z,956.06
2023-02-04T02:15:26.152Z,955.67
2023-02-04T02:16:26.170Z,955.63
2023-02-04T02:17:26.138Z,956.16
2023-02-04T02:18:26.153Z,956.34
2023-02-04T02:19:26.121Z,957.04
2023-02-04T02:20:26.096Z,957.05
2023-02-04T02:21:26.108Z,957.89
2023-02-04T02:22:26.078Z,958.01
2023-02-04T02:23:26.078Z,958.12
2023-02-04T02:24:26.058Z,958.11
2023-02-04T02:25:26.039Z,958.26
2023-02-04T02:26:26.029Z,959.00
2023-02-04T02:27:26.010Z,958.81
2023-02-04T02:28:26.022Z,958.95
2023-02-04T02:29:25.989Z,958.97
2023-02-04T02:30:26.042Z,960.00
2023-02-04T02:31:26.092Z,960.86
2023-02-04T02:32:25.955Z,961.66
2023-02-04T02:33:25.958Z,961.57
2023-02-04T02:34:25.943Z,961.63
2023-02-04T02:35:25.924Z,962.12
2023-02-04T02:36:25.921Z,962.88
2023-02-04T02:37:25.906Z,964.07
2023-02-04T02:38:25.922Z,965.20
2023-02-04T02:39:25.880Z,965.49
2023-02-04T02:40:25.872Z,966.82
2023-02-04T02:41:25.851Z,967.13
2023-02-04T02:42:25.841Z,967.20
2023-02-04T02:43:25.840Z,968.17
2023-02-04T02:44:25.827Z,967.77
2023-02-04T02:45:25.802Z,967.11
2023-02-04T02:46:25.825Z,968.12
2023-02-04T02:47:25.788Z,968.93
2023-02-04T02:48:25.790Z,969.44
2023-02-04T02:49:25.761Z,969.16
2023-02-04T02:50:25.762Z,969.03
2023-02-04T02:51:25.748Z,969.78
2023-02-04T02:52:25.729Z,971.14
2023-02-04T02:53:25.722Z,971.45
2023-02-04T02:54:25.728Z,972.33
2023-02-04T02:55:25.695Z,973.18
2023-02-04T02:56:25.677Z,973.37
2023-02-04T02:57:25.658Z,973.11
2023-02-04T02:58:25.659Z,973.62
2023-02-04T02:59:25.670Z,974.08
2023-02-04T03:00:25.628Z,975.69
2023-02-04T03:01:25.621Z,976.79
2023-02-04T03:02:25.646Z,977.94
2023-02-04T03:03:25.617Z,978.36
2023-02-04T03:04:25.580Z,979.83
2023-02-04T03:05:25.578Z,980.40
2023-02-04T03:06:25.559Z,980.72
2023-02-04T03:07:25.559Z,981.16
2023-02-04T03:08:25.546Z,980.79
2023-02-04T03:09:25.526Z,979.67
2023-02-04T03:10:25.518Z,979.36
2023-02-04T03:11:25.507Z,980.48
2023-02-04T03:12:25.497Z,981.13
2023-02-04T03:13:25.486Z,981.78
2023-02-04T03:14:25.468Z,982.63
2023-02-04T03:15:25.479Z,983.74
2023-02-04T03:16:25.448Z,983.72
2023-02-04T03:17:25.437Z,984.42
2023-02-04T03:18:25.438Z,985.22
2023-02-04T03:19:25.412Z,986.00
2023-02-04T03:20:25.399Z,985.75
2023-02-04T03:21:25.388Z,986.65
2023-02-04T03:22:25.374Z,986.23
2023-02-04T03:23:25.378Z,986.93
2023-02-04T03:24:25.406Z,987.29
2023-02-04T03:25:25.344Z,987.06
2023-02-04T03:26:25.330Z,986.96
2023-02-04T03:27:25.322Z,986.97
2023-02-04T03:28:25.313Z,986.53
2023-02-04T03:29:25.295Z,985.86
2023-02-04T03:30:25.283Z,985.60
2023-02-04T03:31:25.326Z,986.11
2023-02-04T03:32:25.268Z,985.63
2023-02-04T03:33:25.256Z,985.14
2023-02-04T03:34:25.254Z,985.16
2023-02-04T03:35:25.246Z,984.89
2023-02-04T03:36:25.215Z,983.80
2023-02-04T03:37:25.214Z,983.29
2023-02-04T03:38:25.209Z,982.95
2023-02-04T03:39:25.176Z,982.40
2023-02-04T03:40:25.165Z,982.88
2023-02-04T03:41:25.157Z,983.18
2023-02-04T03:42:25.160Z,983.26
2023-02-04T03:43:25.155Z,983.04
2023-02-04T03:44:25.146Z,983.08
2023-02-04T03:45:27.084Z,983.45
2023-02-04T03:46:25.153Z,984.12
2023-02-04T03:47:25.098Z,983.53
2023-02-04T03:48:25.095Z,982.67
2023-02-04T03:49:25.079Z,982.13
2023-02-04T03:50:25.057Z,982.42
2023-02-04T03:51:25.046Z,983.33
2023-02-04T03:52:25.044Z,983.86
2023-02-04T03:53:25.017Z,983.68
2023-02-04T03:54:25.038Z,983.39
2023-02-04T03:55:25.003Z,982.85
2023-02-04T03:56:24.987Z,982.23
2023-02-04T03:57:24.968Z,982.64
2023-02-04T03:58:24.978Z,982.89
2023-02-04T03:59:24.963Z,982.92
2023-02-04T04:00:24.937Z,983.51
2023-02-04T04:01:24.964Z,983.21
2023-02-04T04:02:24.989Z,982.48
2023-02-04T04:03:24.919Z,983.22
2023-02-04T04:04:24.912Z,983.43
2023-02-04T04:05:24.892Z,984.36
2023-02-04T04:06:24.869Z,985.11
2023-02-04T04:07:24.864Z,985.51
2023-02-04T04:08:24.851Z,984.96
2023-02-04T04:09:24.850Z,985.08
2023-02-04T04:10:24.810Z,985.63
2023-02-04T04:11:24.852Z,985.85
2023-02-04T04:12:24.795Z,985.74
2023-02-04T04:13:24.801Z,985.08
2023-02-04T04:14:24.780Z,984.62
2023-02-04T04:15:24.773Z,984.74
2023-02-04T04:16:24.748Z,985.41
2023-02-04T04:17:24.740Z,985.53
2023-02-04T04:18:24.765Z,984.96
2023-02-04T04:19:24.756Z,984.49
2023-02-04T04:20:24.711Z,984.90
2023-02-04T04:21:24.698Z,984.59
2023-02-04T04:22:24.685Z,984.95
2023-02-04T04:23:24.696Z,986.13
2023-02-04T04:24:24.674Z,986.44
2023-02-04T04:25:24.679Z,985.96
2023-02-04T04:26:24.632Z,986.19
2023-02-04T04:27:24.617Z,986.82
2023-02-04T04:28:24.622Z,986.88
2023-02-04T04:29:24.618Z,986.80
2023-02-04T04:30:24.580Z,987.00
2023-02-04T04:31:24.655Z,987.56
2023-02-04T04:32:24.558Z,988.15
2023-02-04T04:33:24.556Z,989.03
2023-02-04T04:34:24.577Z,988.11
2023-02-04T04:35:24.530Z,988.35
2023-02-04T04:36:24.521Z,988.30
2023-02-04T04:37:24.505Z,988.37
2023-02-04T04:38:24.517Z,988.25
2023-02-04T04:39:24.465Z,989.20
2023-02-04T04:40:24.464Z,989.90
2023-02-04T04:41:24.455Z,990.41
2023-02-04T04:42:24.445Z,990.31
2023-02-04T04:43:24.452Z,989.74
2023-02-04T04:44:24.444Z,989.02
2023-02-04T04:45:24.415Z,988.25
2023-02-04T04:46:24.512Z,988.28
2023-02-04T04:47:24.376Z,989.20
2023-02-04T04:48:24.365Z,989.31
2023-02-04T04:49:24.365Z,990.37
2023-02-04T04:50:24.352Z,990.06
2023-02-04T04:51:24.349Z,989.81
2023-02-04T04:52:24.318Z,989.29
2023-02-04T04:53:24.330Z,989.09
2023-02-04T04:54:24.320Z,989.85
2023-02-04T04:55:24.285Z,990.58
2023-02-04T04:56:24.274Z,990.38
2023-02-04T04:57:24.266Z,990.14
2023-02-04T04:58:24.269Z,990.06
2023-02-04T04:59:24.244Z,989.71
2023-02-04T05:00:24.265Z,989.37
2023-02-04T05:01:24.229Z,990.17
2023-02-04T05:02:24.213Z,991.16
2023-02-04T05:03:24.222Z,991.27
2023-02-04T05:04:24.222Z,992.17
2023-02-04T05:05:24.186Z,992.55
2023-02-04T05:06:24.168Z,993.43
2023-02-04T05:07:24.160Z,993.27
2023-02-04T05:08:24.138Z,993.76
2023-02-04T05:09:24.130Z,993.21
2023-02-04T05:10:24.137Z,993.13
2023-02-04T05:11:24.113Z,993.00
2023-02-04T05:12:24.091Z,993.50
2023-02-04T05:13:24.104Z,993.45
2023-02-04T05:14:24.073Z,994.69
2023-02-04T05:15:24.087Z,994.43
2023-02-04T05:16:24.185Z,994.68
2023-02-04T05:17:24.053Z,995.11
2023-02-04T05:18:24.043Z,994.59
2023-02-04T05:19:24.030Z,994.52
2023-02-04T05:20:24.004Z,994.77
2023-02-04T05:21:24.001Z,994.27
2023-02-04T05:22:23.973Z,992.97
2023-02-04T05:23:23.990Z,992.81
2023-02-04T05:24:23.957Z,993.11
2023-02-04T05:25:23.998Z,993.27
2023-02-04T05:26:30.296Z,993.33
2023-02-04T05:27:24.916Z,993.38
2023-02-04T05:28:23.926Z,992.87
2023-02-04T05:29:23.896Z,993.55
2023-02-04T05:30:23.903Z,994.00
2023-02-04T05:31:24.006Z,993.88
2023-02-04T05:32:23.866Z,995.04
2023-02-04T05:33:23.863Z,995.75
2023-02-04T05:34:23.846Z,996.19
2023-02-04T05:35:23.855Z,996.00
2023-02-04T05:36:23.821Z,995.80
2023-02-04T05:37:23.808Z,995.20
2023-02-04T05:38:23.806Z,994.26
2023-02-04T05:39:23.800Z,994.69
2023-02-04T05:40:23.757Z,995.31
2023-02-04T05:41:23.776Z,995.56
2023-02-04T05:42:23.737Z,995.57
2023-02-04T05:43:23.753Z,995.67
2023-02-04T05:44:23.760Z,995.89
2023-02-04T05:45:23.788Z,996.05
2023-02-04T05:46:23.745Z,996.09
2023-02-04T05:47:23.684Z,995.62
2023-02-04T05:48:23.700Z,996.69
2023-02-04T05:49:23.657Z,997.34
2023-02-04T05:50:23.663Z,997.95
2023-02-04T05:51:23.644Z,997.75
2023-02-04T05:52:23.630Z,998.01
2023-02-04T05:53:26.063Z,998.53
2023-02-04T05:54:23.608Z,998.82
2023-02-04T05:55:23.606Z,999.19
2023-02-04T05:56:23.602Z,999.46
2023-02-04T05:57:23.582Z,999.53
2023-02-04T05:58:23.574Z,999.19
2023-02-04T05:59:23.533Z,998.85
2023-02-04T06:00:23.534Z,998.77
2023-02-04T06:01:23.505Z,999.35
2023-02-04T06:02:23.505Z,999.06
2023-02-04T06:03:23.530Z,999.60
2023-02-04T06:04:23.525Z,1000.24
2023-02-04T06:05:23.487Z,1000.63
2023-02-04T06:06:23.512Z,1000.67
2023-02-04T06:07:23.443Z,1000.28
2023-02-04T06:08:23.438Z,1000.38
2023-02-04T06:09:23.424Z,1000.75
2023-02-04T06:10:23.444Z,1001.33
2023-02-04T06:11:23.395Z,1001.53
2023-02-04T06:12:23.398Z,1001.32
2023-02-04T06:13:23.407Z,1001.38
2023-02-04T06:14:23.371Z,1000.79
2023-02-04T06:15:24.096Z,1000.61
2023-02-04T06:16:23.440Z,1000.49
2023-02-04T06:17:23.342Z,1000.62
2023-02-04T06:18:23.339Z,1000.83
2023-02-04T06:19:23.316Z,1000.70
2023-02-04T06:20:23.447Z,1000.79
2023-02-04T06:21:23.285Z,1000.91
2023-02-04T06:22:23.275Z,1000.82
2023-02-04T06:23:23.277Z,1000.70
2023-02-04T06:24:23.273Z,1000.61
2023-02-04T06:25:23.378Z,1000.25
2023-02-04T06:26:23.244Z,1000.20
2023-02-04T06:27:26.028Z,1000.31
2023-02-04T06:28:23.275Z,999.92
2023-02-04T06:29:23.205Z,1000.10
2023-02-04T06:30:23.182Z,999.76
2023-02-04T06:31:23.259Z,1000.52
2023-02-04T06:32:23.158Z,1000.51
2023-02-04T06:33:23.166Z,1000.21
2023-02-04T06:34:23.137Z,1000.07
2023-02-04T06:35:23.136Z,1000.57
2023-02-04T06:36:23.139Z,1000.51
2023-02-04T06:37:24.411Z,1000.85
2023-02-04T06:38:23.110Z,1001.63
2023-02-04T06:39:23.076Z,1001.96
2023-02-04T06:40:23.056Z,1001.70
2023-02-04T06:41:23.082Z,1001.72
2023-02-04T06:42:23.051Z,1001.06
2023-02-04T06:43:23.048Z,1001.55
2023-02-04T06:44:23.021Z,1001.75
2023-02-04T06:45:23.018Z,1001.74
2023-02-04T06:46:23.022Z,1001.78
2023-02-04T06:47:22.989Z,1002.34
2023-02-04T06:48:22.992Z,1002.86
2023-02-04T06:49:22.968Z,1002.57
2023-02-04T06:50:22.947Z,1003.28
2023-02-04T06:51:22.952Z,1003.04
2023-02-04T06:52:22.925Z,1003.29
2023-02-04T06:53:22.939Z,1003.11
2023-02-04T06:54:22.900Z,1003.53
2023-02-04T06:55:22.909Z,1002.97
2023-02-04T06:56:22.877Z,1003.03
2023-02-04T06:57:22.870Z,1004.57
2023-02-04T06:58:22.866Z,1005.08
2023-02-04T06:59:22.852Z,1005.27
2023-02-04T07:00:22.833Z,1005.12
2023-02-04T07:01:22.895Z,1004.86
2023-02-04T07:02:22.847Z,1004.78
2023-02-04T07:03:22.813Z,1005.19
2023-02-04T07:04:22.788Z,1005.49
2023-02-04T07:05:22.930Z,1006.34
2023-02-04T07:06:22.799Z,1006.90
2023-02-04T07:07:22.761Z,1007.02
2023-02-04T07:08:22.738Z,1006.88
2023-02-04T07:09:22.757Z,1006.95
2023-02-04T07:10:24.577Z,1006.48
2023-02-04T07:11:22.712Z,1006.13
2023-02-04T07:12:22.716Z,1006.14
2023-02-04T07:13:23.063Z,1006.28
2023-02-04T07:14:22.674Z,1006.10
2023-02-04T07:15:22.649Z,1007.24
2023-02-04T07:16:22.683Z,1007.11
2023-02-04T07:17:22.963Z,1008.53
2023-02-04T07:18:22.642Z,1008.89
2023-02-04T07:19:22.716Z,1008.99
2023-02-04T07:20:22.616Z,1008.80
2023-02-04T07:21:22.631Z,1008.78
2023-02-04T07:22:22.572Z,1008.62
2023-02-04T07:23:22.573Z,1009.52
2023-02-04T07:24:22.560Z,1010.18
2023-02-04T07:25:22.533Z,1010.32
2023-02-04T07:26:22.521Z,1010.72
2023-02-04T07:27:22.539Z,1010.90
2023-02-04T07:28:22.541Z,1011.24
2023-02-04T07:29:25.750Z,1012.43
2023-02-04T07:30:22.482Z,1013.03
2023-02-04T07:31:22.589Z,1012.95
2023-02-04T07:32:22.443Z,1013.29
2023-02-04T07:33:22.447Z,1013.18
2023-02-04T07:34:22.442Z,1012.96
2023-02-04T07:35:22.446Z,1012.37
2023-02-04T07:36:22.419Z,1012.25
2023-02-04T07:37:22.433Z,1011.79
2023-02-04T07:38:22.421Z,1011.71
2023-02-04T07:39:22.377Z,1011.86
2023-02-04T07:40:23.107Z,1011.97
2023-02-04T07:41:22.365Z,1011.84
2023-02-04T07:42:22.327Z,1011.70
2023-02-04T07:43:22.326Z,1011.37
2023-02-04T07:44:22.326Z,1011.85
2023-02-04T07:45:22.428Z,1012.41
2023-02-04T07:46:22.309Z,1012.95
2023-02-04T07:47:22.284Z,1013.07
2023-02-04T07:48:22.265Z,1012.87
2023-02-04T07:49:22.248Z,1014.14
2023-02-04T07:50:22.364Z,1014.18
2023-02-04T07:51:22.224Z,1013.90
2023-02-04T07:52:22.220Z,1014.04
2023-02-04T07:53:22.235Z,1014.75
2023-02-04T07:54:22.211Z,1015.06
2023-02-04T07:55:22.176Z,1014.96
2023-02-04T07:56:22.179Z,1014.54
2023-02-04T07:57:22.173Z,1013.88
2023-02-04T07:58:22.153Z,1014.17
2023-02-04T07:59:22.123Z,1013.58
2023-02-04T08:00:22.112Z,1013.11
2023-02-04T08:01:22.126Z,1013.36
2023-02-04T08:02:22.193Z,1013.25
2023-02-04T08:03:22.074Z,1013.81
2023-02-04T08:04:22.071Z,1015.01
2023-02-04T08:05:22.443Z,1015.74
2023-02-04T08:06:22.101Z,1016.58
2023-02-04T08:07:22.901Z,1016.72
2023-02-04T08:08:22.359Z,1017.20
2023-02-04T08:09:22.351Z,1017.38
2023-02-04T08:10:22.100Z,1016.41
2023-02-04T08:11:22.042Z,1015.56
2023-02-04T08:12:22.002Z,1015.24
2023-02-04T08:13:21.985Z,1015.23
2023-02-04T08:14:22.010Z,1014.67
2023-02-04T08:15:21.973Z,1014.90
2023-02-04T08:16:22.330Z,1014.16
2023-02-04T08:17:21.919Z,1013.00
2023-02-04T08:18:21.929Z,1012.19
2023-02-04T08:19:21.900Z,1011.49
2023-02-04T08:20:21.881Z,1011.16
2023-02-04T08:21:21.867Z,1011.71
2023-02-04T08:22:21.876Z,1011.33
2023-02-04T08:23:21.885Z,1011.04
2023-02-04T08:24:21.855Z,1011.87
2023-02-04T08:25:21.809Z,1012.24
2023-02-04T08:26:21.807Z,1012.15
2023-02-04T08:27:21.825Z,1011.99
2023-02-04T08:28:21.883Z,1013.57
2023-02-04T08:29:21.776Z,1014.19
2023-02-04T08:30:21.771Z,1013.93
2023-02-04T08:31:21.807Z,1013.30
2023-02-04T08:32:21.758Z,1012.10
2023-02-04T08:33:21.740Z,1011.54
2023-02-04T08:34:21.723Z,1011.32
2023-02-04T08:35:21.714Z,1010.81
2023-02-04T08:36:21.690Z,1011.20
2023-02-04T08:37:21.688Z,1012.54
2023-02-04T08:38:21.692Z,1014.55
2023-02-04T08:39:21.675Z,1015.81
2023-02-04T08:40:21.636Z,1016.56
2023-02-04T08:41:21.627Z,1017.08
2023-02-04T08:42:21.617Z,1017.20
2023-02-04T08:43:21.630Z,1017.43
2023-02-04T08:44:21.602Z,1017.36
2023-02-04T08:45:21.582Z,1016.86
2023-02-04T08:46:21.647Z,1016.51
2023-02-04T08:47:21.572Z,1016.48
2023-02-04T08:48:21.583Z,1016.16
2023-02-04T08:49:21.551Z,1017.29
2023-02-04T08:50:21.552Z,1018.37
2023-02-04T08:51:21.524Z,1019.33
2023-02-04T08:52:21.517Z,1020.32
2023-02-04T08:53:21.511Z,1021.63
2023-02-04T08:54:21.504Z,1022.12
2023-02-04T08:55:21.489Z,1022.30
2023-02-04T08:56:21.479Z,1022.99
2023-02-04T08:57:21.473Z,1023.73
2023-02-04T08:58:21.498Z,1022.97
2023-02-04T08:59:21.742Z,1022.17
2023-02-04T09:00:21.427Z,1021.22
2023-02-04T09:01:21.474Z,1020.51
2023-02-04T09:02:21.452Z,1019.98
2023-02-04T09:03:21.395Z,1020.44
2023-02-04T09:04:21.422Z,1020.62
2023-02-04T09:05:21.374Z,1020.22
2023-02-04T09:06:21.372Z,1019.98
2023-02-04T09:07:21.351Z,1019.48
2023-02-04T09:08:21.373Z,1019.29
2023-02-04T09:09:23.027Z,1019.58
2023-02-04T09:10:21.710Z,1019.85
2023-02-04T09:11:21.308Z,1020.00
2023-02-04T09:12:21.293Z,1019.84
2023-02-04T09:13:21.294Z,1019.27
2023-02-04T09:14:21.312Z,1018.56
2023-02-04T09:15:21.275Z,1019.94
2023-02-04T09:16:21.310Z,1020.26
2023-02-04T09:17:21.234Z,1020.48
2023-02-04T09:18:21.226Z,1020.36
2023-02-04T09:19:21.230Z,1020.00
2023-02-04T09:20:21.214Z,1021.35
2023-02-04T09:21:21.196Z,1021.58
2023-02-04T09:22:21.206Z,1021.32
2023-02-04T09:23:21.203Z,1020.73
2023-02-04T09:24:21.178Z,1020.86
2023-02-04T09:25:21.147Z,1021.35
2023-02-04T09:26:21.147Z,1021.88
2023-02-04T09:27:21.136Z,1022.14
2023-02-04T09:28:21.187Z,1022.45
2023-02-04T09:29:21.141Z,1022.17
2023-02-04T09:30:21.111Z,1021.02
2023-02-04T09:31:21.193Z,1019.58
2023-02-04T09:32:21.094Z,1018.89
2023-02-04T09:33:21.087Z,1019.03
2023-02-04T09:34:21.092Z,1019.48
2023-02-04T09:35:21.042Z,1019.91
2023-02-04T09:36:21.032Z,1019.63
2023-02-04T09:37:21.026Z,1019.56
2023-02-04T09:38:21.013Z,1017.92
2023-02-04T09:39:21.025Z,1016.77
2023-02-04T09:40:21.011Z,1014.99
2023-02-04T09:41:21.005Z,1015.43
2023-02-04T09:42:20.966Z,1016.99
2023-02-04T09:43:20.978Z,1018.14
2023-02-04T09:44:20.947Z,1019.89
2023-02-04T09:45:20.927Z,1021.09
2023-02-04T09:46:20.929Z,1021.97
2023-02-04T09:47:20.936Z,1022.58
2023-02-04T09:48:20.917Z,1023.51
2023-02-04T09:49:20.886Z,1024.37
2023-02-04T09:50:20.887Z,1024.40
2023-02-04T09:51:20.892Z,1024.62
2023-02-04T09:52:20.860Z,1025.02
2023-02-04T09:53:20.846Z,1024.99
2023-02-04T09:54:20.859Z,1024.20
2023-02-04T09:55:20.820Z,1022.71
2023-02-04T09:56:20.834Z,1020.98
2023-02-04T09:57:20.821Z,1020.02
2023-02-04T09:58:20.778Z,1020.50
2023-02-04T09:59:20.815Z,1023.16
2023-02-04T10:00:20.767Z,1024.99
2023-02-04T10:01:20.798Z,1025.88
2023-02-04T10:02:20.733Z,1026.75
2023-02-04T10:03:20.743Z,1027.66
2023-02-04T10:04:20.719Z,1028.04
2023-02-04T10:05:22.682Z,1027.86
2023-02-04T10:06:20.698Z,1027.46
2023-02-04T10:07:20.678Z,1027.48
2023-02-04T10:08:20.682Z,1026.54
2023-02-04T10:09:20.640Z,1024.68
2023-02-04T10:10:20.674Z,1023.05
2023-02-04T10:11:20.638Z,1022.70
2023-02-04T10:12:20.615Z,1023.74
2023-02-04T10:13:20.624Z,1024.94
2023-02-04T10:14:20.603Z,1026.54
2023-02-04T10:15:20.580Z,1028.98
2023-02-04T10:16:20.616Z,1030.49
2023-02-04T10:17:20.560Z,1031.14
2023-02-04T10:18:20.556Z,1031.09
2023-02-04T10:19:20.530Z,1029.39
2023-02-04T10:20:20.560Z,1027.01
2023-02-04T10:21:20.500Z,1024.94
2023-02-04T10:22:20.523Z,1023.16
2023-02-04T10:23:20.504Z,1021.91
2023-02-04T10:24:20.503Z,1020.44
2023-02-04T10:25:20.475Z,1019.80
2023-02-04T10:26:20.457Z,1019.65
2023-02-04T10:27:20.436Z,1019.81
2023-02-04T10:28:20.510Z,1019.50
2023-02-04T10:29:20.407Z,1020.09
2023-02-04T10:30:20.499Z,1021.56
2023-02-04T10:31:20.462Z,1022.94
2023-02-04T10:32:20.390Z,1023.98
2023-02-04T10:33:20.407Z,1024.64
2023-02-04T10:34:20.408Z,1025.08
2023-02-04T10:35:20.357Z,1025.91
2023-02-04T10:36:20.364Z,1026.00
2023-02-04T10:37:20.337Z,1026.10
2023-02-04T10:38:20.341Z,1025.81
2023-02-04T10:39:20.311Z,1024.22
2023-02-04T10:40:20.292Z,1022.88
2023-02-04T10:41:20.281Z,1021.70
2023-02-04T10:42:20.282Z,1019.17
2023-02-04T10:43:20.272Z,1017.34
2023-02-04T10:44:20.255Z,1016.78
2023-02-04T10:45:20.262Z,1017.45
2023-02-04T10:46:20.281Z,1017.57
2023-02-04T10:47:20.230Z,1016.36
2023-02-04T10:48:20.215Z,1015.25
2023-02-04T10:49:20.189Z,1014.87
2023-02-04T10:50:20.186Z,1013.85
2023-02-04T10:51:20.175Z,1012.56
2023-02-04T10:52:20.154Z,1010.83
2023-02-04T10:53:20.181Z,1009.98
2023-02-04T10:54:20.136Z,1009.04
2023-02-04T10:55:20.124Z,1009.33
2023-02-04T10:56:20.122Z,1007.85
2023-02-04T10:57:21.763Z,1008.96
2023-02-04T10:58:20.141Z,1012.09
2023-02-04T10:59:20.103Z,1015.71
2023-02-04T11:00:20.067Z,1018.85
2023-02-04T11:01:20.104Z,1020.81
2023-02-04T11:02:20.049Z,1021.44
2023-02-04T11:03:20.126Z,1020.32
2023-02-04T11:04:20.027Z,1018.56
2023-02-04T11:05:20.028Z,1016.21
2023-02-04T11:06:20.012Z,1012.81
2023-02-04T11:07:19.996Z,1009.80
2023-02-04T11:08:19.986Z,1008.32
2023-02-04T11:09:20.016Z,1008.70
2023-02-04T11:10:20.006Z,1009.80
2023-02-04T11:11:19.955Z,1009.14
2023-02-04T11:12:19.940Z,1006.98
2023-02-04T11:13:19.945Z,1004.23
2023-02-04T11:14:19.916Z,1004.49
2023-02-04T11:15:19.900Z,1005.28
2023-02-04T11:16:19.961Z,1004.80
2023-02-04T11:17:19.895Z,1003.45
2023-02-04T11:18:19.925Z,1000.34
2023-02-04T11:19:20.127Z,997.08
2023-02-04T11:20:19.853Z,994.61
2023-02-04T11:21:19.831Z,992.88
2023-02-04T11:22:19.818Z,992.42
2023-02-04T11:23:19.825Z,992.51
2023-02-04T11:24:19.787Z,993.62
2023-02-04T11:25:19.817Z,992.48
2023-02-04T11:26:19.790Z,992.04
2023-02-04T11:27:19.776Z,992.79
2023-02-04T11:28:19.774Z,994.30
2023-02-04T11:29:19.754Z,998.15
2023-02-04T11:30:19.729Z,1000.64
2023-02-04T11:31:19.888Z,1003.71
2023-02-04T11:32:21.555Z,1007.62
2023-02-04T11:33:19.712Z,1009.82
2023-02-04T11:34:19.711Z,1010.84
2023-02-04T11:35:19.664Z,1011.86
2023-02-04T11:36:19.679Z,1015.04
2023-02-04T11:37:19.654Z,1016.59
2023-02-04T11:38:20.059Z,1018.69
2023-02-04T11:39:19.668Z,1020.95
2023-02-04T11:40:19.625Z,1023.13
2023-02-04T11:41:19.635Z,1024.87
2023-02-04T11:42:19.589Z,1024.79
2023-02-04T11:43:21.698Z,1023.34
2023-02-04T11:44:19.583Z,1021.20
2023-02-04T11:45:19.540Z,1018.48
2023-02-04T11:46:19.642Z,1014.55
2023-02-04T11:47:19.534Z,1009.58
2023-02-04T11:48:19.537Z,1004.75
2023-02-04T11:49:19.513Z,1000.88
2023-02-04T11:50:19.516Z,999.49
2023-02-04T11:51:19.836Z,1002.41
2023-02-04T11:52:20.524Z,1003.30
2023-02-04T11:53:19.471Z,1004.28
2023-02-04T11:54:19.506Z,1005.47
2023-02-04T11:55:19.452Z,1005.32
2023-02-04T11:56:19.459Z,1003.96
2023-02-04T11:57:19.522Z,1001.23
2023-02-04T11:58:19.431Z,999.50
2023-02-04T11:59:19.529Z,998.30
2023-02-04T12:00:19.463Z,996.87
2023-02-04T12:01:19.392Z,999.00
2023-02-04T12:02:19.370Z,1002.88
2023-02-04T12:03:19.349Z,1004.69
2023-02-04T12:04:19.332Z,1006.67
2023-02-04T12:05:19.333Z,1009.90
2023-02-04T12:06:19.334Z,1012.45
2023-02-04T12:07:19.309Z,1014.49
2023-02-04T12:08:19.275Z,1016.64
2023-02-04T12:09:19.268Z,1018.60
2023-02-04T12:10:23.259Z,1019.29
2023-02-04T12:11:19.256Z,1020.49
2023-02-04T12:12:19.285Z,1020.51
2023-02-04T12:13:19.225Z,1020.46
2023-02-04T12:14:19.205Z,1019.83
2023-02-04T12:15:19.217Z,1020.23
2023-02-04T12:16:19.309Z,1019.16
2023-02-04T12:17:19.208Z,1017.10